sensor_id;sensor_type;location;lat;lon;timestamp;P1;durP1;ratioP1;P2;durP2;ratioP2
24090;SDS011;12272;52.426;17.100;2024-02-15T00:02:24;22.20;;;16.30;;
24090;SDS011;12272;52.426;17.100;2024-02-15T00:07:27;21.13;;;13.33;;
24090;SDS011;12272;52.426;17.100;2024-02-15T00:12:30;19.30;;;15.63;;
24090;SDS011;12272;52.426;17.100;2024-02-15T00:17:33;21.37;;;16.53;;
24090;SDS011;12272;52.426;17.100;2024-02-15T00:22:38;24.60;;;16.47;;
24090;SDS011;12272;52.426;17.100;2024-02-15T00:27:43;21.07;;;15.33;;
24090;SDS011;12272;52.426;17.100;2024-02-15T00:32:45;23.57;;;16.33;;
24090;SDS011;12272;52.426;17.100;2024-02-15T00:37:49;21.67;;;16.10;;
24090;SDS011;12272;52.426;17.100;2024-02-15T00:42:52;23.17;;;15.53;;
24090;SDS011;12272;52.426;17.100;2024-02-15T00:47:54;27.20;;;18.53;;
24090;SDS011;12272;52.426;17.100;2024-02-15T00:52:58;32.50;;;18.33;;
24090;SDS011;12272;52.426;17.100;2024-02-15T00:58:00;28.10;;;18.10;;
24090;SDS011;12272;52.426;17.100;2024-02-15T01:03:03;24.50;;;17.07;;
24090;SDS011;12272;52.426;17.100;2024-02-15T01:08:06;28.17;;;18.13;;
24090;SDS011;12272;52.426;17.100;2024-02-15T01:13:10;26.33;;;17.13;;
24090;SDS011;12272;52.426;17.100;2024-02-15T01:18:14;24.53;;;16.33;;
24090;SDS011;12272;52.426;17.100;2024-02-15T01:23:16;25.33;;;16.17;;
24090;SDS011;12272;52.426;17.100;2024-02-15T01:28:19;25.60;;;16.10;;
24090;SDS011;12272;52.426;17.100;2024-02-15T01:33:21;22.93;;;15.93;;
24090;SDS011;12272;52.426;17.100;2024-02-15T01:38:24;24.57;;;15.97;;
24090;SDS011;12272;52.426;17.100;2024-02-15T01:43:27;20.23;;;15.13;;
24090;SDS011;12272;52.426;17.100;2024-02-15T01:48:29;19.27;;;14.43;;
24090;SDS011;12272;52.426;17.100;2024-02-15T01:53:33;24.10;;;14.77;;
24090;SDS011;12272;52.426;17.100;2024-02-15T01:58:36;20.10;;;13.93;;
24090;SDS011;12272;52.426;17.100;2024-02-15T02:03:42;22.37;;;14.47;;
24090;SDS011;12272;52.426;17.100;2024-02-15T02:08:45;20.03;;;15.57;;
24090;SDS011;12272;52.426;17.100;2024-02-15T02:13:47;21.27;;;14.70;;
24090;SDS011;12272;52.426;17.100;2024-02-15T02:18:50;26.33;;;16.03;;
24090;SDS011;12272;52.426;17.100;2024-02-15T02:23:55;18.53;;;14.27;;
24090;SDS011;12272;52.426;17.100;2024-02-15T02:28:59;20.33;;;13.73;;
24090;SDS011;12272;52.426;17.100;2024-02-15T02:34:01;23.83;;;14.27;;
24090;SDS011;12272;52.426;17.100;2024-02-15T02:39:05;18.17;;;13.73;;
24090;SDS011;12272;52.426;17.100;2024-02-15T02:44:09;20.33;;;14.87;;
24090;SDS011;12272;52.426;17.100;2024-02-15T02:49:11;23.60;;;14.50;;
24090;SDS011;12272;52.426;17.100;2024-02-15T02:54:14;16.13;;;12.97;;
24090;SDS011;12272;52.426;17.100;2024-02-15T02:59:17;18.53;;;13.07;;
24090;SDS011;12272;52.426;17.100;2024-02-15T03:04:19;19.83;;;13.13;;
24090;SDS011;12272;52.426;17.100;2024-02-15T03:09:22;19.33;;;13.43;;
24090;SDS011;12272;52.426;17.100;2024-02-15T03:14:24;17.23;;;13.27;;
24090;SDS011;12272;52.426;17.100;2024-02-15T03:19:27;20.73;;;14.60;;
24090;SDS011;12272;52.426;17.100;2024-02-15T03:24:30;19.93;;;14.20;;
24090;SDS011;12272;52.426;17.100;2024-02-15T03:29:33;19.73;;;12.87;;
24090;SDS011;12272;52.426;17.100;2024-02-15T03:34:37;16.33;;;11.83;;
24090;SDS011;12272;52.426;17.100;2024-02-15T03:39:41;19.17;;;12.80;;
24090;SDS011;12272;52.426;17.100;2024-02-15T03:44:44;16.03;;;12.37;;
24090;SDS011;12272;52.426;17.100;2024-02-15T03:49:47;18.97;;;12.87;;
24090;SDS011;12272;52.426;17.100;2024-02-15T03:54:50;17.20;;;13.33;;
24090;SDS011;12272;52.426;17.100;2024-02-15T03:59:53;18.97;;;12.27;;
24090;SDS011;12272;52.426;17.100;2024-02-15T04:04:59;17.07;;;12.47;;
24090;SDS011;12272;52.426;17.100;2024-02-15T04:10:01;20.33;;;13.73;;
24090;SDS011;12272;52.426;17.100;2024-02-15T04:15:04;19.57;;;13.20;;
24090;SDS011;12272;52.426;17.100;2024-02-15T04:20:15;19.97;;;13.00;;
24090;SDS011;12272;52.426;17.100;2024-02-15T04:25:19;19.83;;;13.00;;
24090;SDS011;12272;52.426;17.100;2024-02-15T04:30:25;17.90;;;13.37;;
24090;SDS011;12272;52.426;17.100;2024-02-15T04:35:27;18.20;;;13.77;;
24090;SDS011;12272;52.426;17.100;2024-02-15T04:40:30;16.77;;;12.90;;
24090;SDS011;12272;52.426;17.100;2024-02-15T04:45:34;17.63;;;13.20;;
24090;SDS011;12272;52.426;17.100;2024-02-15T04:50:37;15.50;;;12.90;;
24090;SDS011;12272;52.426;17.100;2024-02-15T04:55:39;18.57;;;12.50;;
24090;SDS011;12272;52.426;17.100;2024-02-15T05:00:42;16.00;;;12.90;;
24090;SDS011;12272;52.426;17.100;2024-02-15T05:05:45;19.23;;;12.63;;
24090;SDS011;12272;52.426;17.100;2024-02-15T05:10:47;20.07;;;13.33;;
24090;SDS011;12272;52.426;17.100;2024-02-15T05:15:50;17.70;;;13.50;;
24090;SDS011;12272;52.426;17.100;2024-02-15T05:20:52;19.07;;;13.60;;
24090;SDS011;12272;52.426;17.100;2024-02-15T05:25:55;18.90;;;14.20;;
24090;SDS011;12272;52.426;17.100;2024-02-15T05:31:08;16.90;;;12.33;;
24090;SDS011;12272;52.426;17.100;2024-02-15T05:36:16;16.37;;;12.43;;
24090;SDS011;12272;52.426;17.100;2024-02-15T05:41:22;22.67;;;14.07;;
24090;SDS011;12272;52.426;17.100;2024-02-15T05:46:25;18.77;;;13.00;;
24090;SDS011;12272;52.426;17.100;2024-02-15T05:51:29;21.40;;;13.53;;
24090;SDS011;12272;52.426;17.100;2024-02-15T05:56:33;16.40;;;13.40;;
24090;SDS011;12272;52.426;17.100;2024-02-15T06:01:36;17.20;;;13.40;;
24090;SDS011;12272;52.426;17.100;2024-02-15T06:06:40;24.50;;;14.43;;
24090;SDS011;12272;52.426;17.100;2024-02-15T06:11:44;25.00;;;18.77;;
24090;SDS011;12272;52.426;17.100;2024-02-15T06:16:48;29.87;;;19.17;;
24090;SDS011;12272;52.426;17.100;2024-02-15T06:21:50;24.37;;;16.93;;
24090;SDS011;12272;52.426;17.100;2024-02-15T06:26:53;24.20;;;15.33;;
24090;SDS011;12272;52.426;17.100;2024-02-15T06:32:01;23.13;;;14.33;;
24090;SDS011;12272;52.426;17.100;2024-02-15T06:37:35;29.47;;;18.97;;
24090;SDS011;12272;52.426;17.100;2024-02-15T06:42:57;39.07;;;24.70;;
24090;SDS011;12272;52.426;17.100;2024-02-15T06:47:59;25.93;;;16.50;;
24090;SDS011;12272;52.426;17.100;2024-02-15T06:53:02;23.63;;;18.30;;
24090;SDS011;12272;52.426;17.100;2024-02-15T06:58:04;32.37;;;19.20;;
24090;SDS011;12272;52.426;17.100;2024-02-15T07:03:07;25.77;;;15.90;;
24090;SDS011;12272;52.426;17.100;2024-02-15T07:08:11;21.60;;;14.63;;
24090;SDS011;12272;52.426;17.100;2024-02-15T07:13:14;22.47;;;16.00;;
24090;SDS011;12272;52.426;17.100;2024-02-15T07:18:17;21.43;;;15.63;;
24090;SDS011;12272;52.426;17.100;2024-02-15T07:23:30;24.07;;;17.33;;
24090;SDS011;12272;52.426;17.100;2024-02-15T07:28:34;31.87;;;16.37;;
24090;SDS011;12272;52.426;17.100;2024-02-15T07:33:38;19.90;;;14.80;;
24090;SDS011;12272;52.426;17.100;2024-02-15T07:38:41;23.77;;;16.57;;
24090;SDS011;12272;52.426;17.100;2024-02-15T07:43:43;25.17;;;18.23;;
24090;SDS011;12272;52.426;17.100;2024-02-15T07:48:46;29.43;;;18.67;;
24090;SDS011;12272;52.426;17.100;2024-02-15T07:53:49;21.93;;;14.70;;
24090;SDS011;12272;52.426;17.100;2024-02-15T07:58:52;26.10;;;15.60;;
24090;SDS011;12272;52.426;17.100;2024-02-15T08:03:55;19.90;;;15.33;;
24090;SDS011;12272;52.426;17.100;2024-02-15T08:08:58;21.93;;;15.50;;
24090;SDS011;12272;52.426;17.100;2024-02-15T08:14:01;28.13;;;18.83;;
24090;SDS011;12272;52.426;17.100;2024-02-15T08:19:03;30.50;;;22.27;;
24090;SDS011;12272;52.426;17.100;2024-02-15T08:24:07;32.60;;;20.57;;
24090;SDS011;12272;52.426;17.100;2024-02-15T08:29:11;24.60;;;17.83;;
24090;SDS011;12272;52.426;17.100;2024-02-15T08:34:17;28.37;;;18.73;;
24090;SDS011;12272;52.426;17.100;2024-02-15T08:39:21;21.27;;;15.90;;
24090;SDS011;12272;52.426;17.100;2024-02-15T08:44:27;20.67;;;14.80;;
24090;SDS011;12272;52.426;17.100;2024-02-15T08:49:30;21.77;;;14.03;;
24090;SDS011;12272;52.426;17.100;2024-02-15T08:54:33;25.60;;;13.27;;
24090;SDS011;12272;52.426;17.100;2024-02-15T08:59:38;25.73;;;16.40;;
24090;SDS011;12272;52.426;17.100;2024-02-15T09:04:41;25.20;;;15.10;;
24090;SDS011;12272;52.426;17.100;2024-02-15T09:09:46;19.00;;;14.00;;
24090;SDS011;12272;52.426;17.100;2024-02-15T09:14:49;15.40;;;12.67;;
24090;SDS011;12272;52.426;17.100;2024-02-15T09:19:52;18.60;;;13.60;;
24090;SDS011;12272;52.426;17.100;2024-02-15T09:24:55;21.13;;;14.43;;
24090;SDS011;12272;52.426;17.100;2024-02-15T09:29:57;17.90;;;13.63;;
24090;SDS011;12272;52.426;17.100;2024-02-15T09:35:00;19.17;;;13.53;;
24090;SDS011;12272;52.426;17.100;2024-02-15T09:40:09;17.87;;;13.20;;
24090;SDS011;12272;52.426;17.100;2024-02-15T09:45:13;16.90;;;11.73;;
24090;SDS011;12272;52.426;17.100;2024-02-15T09:50:19;17.20;;;11.03;;
24090;SDS011;12272;52.426;17.100;2024-02-15T09:55:22;19.30;;;13.63;;
24090;SDS011;12272;52.426;17.100;2024-02-15T10:00:25;18.60;;;12.70;;
24090;SDS011;12272;52.426;17.100;2024-02-15T10:05:29;19.63;;;12.27;;
24090;SDS011;12272;52.426;17.100;2024-02-15T10:10:33;19.57;;;13.03;;
24090;SDS011;12272;52.426;17.100;2024-02-15T10:15:38;13.20;;;8.47;;
24090;SDS011;12272;52.426;17.100;2024-02-15T10:20:42;25.43;;;14.23;;
24090;SDS011;12272;52.426;17.100;2024-02-15T10:25:59;22.53;;;14.47;;
24090;SDS011;12272;52.426;17.100;2024-02-15T10:31:07;22.17;;;14.43;;
24090;SDS011;12272;52.426;17.100;2024-02-15T10:36:10;22.80;;;14.73;;
24090;SDS011;12272;52.426;17.100;2024-02-15T10:41:14;22.43;;;13.47;;
24090;SDS011;12272;52.426;17.100;2024-02-15T10:46:17;17.43;;;11.53;;
24090;SDS011;12272;52.426;17.100;2024-02-15T10:51:22;25.63;;;16.13;;
24090;SDS011;12272;52.426;17.100;2024-02-15T10:56:27;21.33;;;15.00;;
24090;SDS011;12272;52.426;17.100;2024-02-15T11:01:37;21.63;;;13.93;;
24090;SDS011;12272;52.426;17.100;2024-02-15T11:06:44;22.20;;;15.37;;
24090;SDS011;12272;52.426;17.100;2024-02-15T11:11:48;19.60;;;12.97;;
24090;SDS011;12272;52.426;17.100;2024-02-15T11:16:53;16.47;;;10.43;;
24090;SDS011;12272;52.426;17.100;2024-02-15T11:21:55;15.40;;;10.23;;
24090;SDS011;12272;52.426;17.100;2024-02-15T11:26:59;17.00;;;11.93;;
24090;SDS011;12272;52.426;17.100;2024-02-15T11:32:06;22.03;;;13.83;;
24090;SDS011;12272;52.426;17.100;2024-02-15T11:43:01;16.47;;;12.30;;
24090;SDS011;12272;52.426;17.100;2024-02-15T11:48:08;17.53;;;13.70;;
24090;SDS011;12272;52.426;17.100;2024-02-15T11:53:15;23.67;;;15.10;;
24090;SDS011;12272;52.426;17.100;2024-02-15T11:58:20;17.43;;;12.63;;
24090;SDS011;12272;52.426;17.100;2024-02-15T12:03:30;16.43;;;12.97;;
24090;SDS011;12272;52.426;17.100;2024-02-15T12:09:04;18.73;;;14.37;;
24090;SDS011;12272;52.426;17.100;2024-02-15T12:14:26;19.07;;;14.97;;
24090;SDS011;12272;52.426;17.100;2024-02-15T12:19:47;20.13;;;14.50;;
24090;SDS011;12272;52.426;17.100;2024-02-15T12:25:00;19.30;;;12.67;;
24090;SDS011;12272;52.426;17.100;2024-02-15T12:30:14;14.37;;;9.97;;
24090;SDS011;12272;52.426;17.100;2024-02-15T12:35:21;18.87;;;14.70;;
24090;SDS011;12272;52.426;17.100;2024-02-15T12:40:30;19.83;;;14.53;;
24090;SDS011;12272;52.426;17.100;2024-02-15T12:45:43;21.60;;;14.67;;
24090;SDS011;12272;52.426;17.100;2024-02-15T12:50:45;16.57;;;11.63;;
24090;SDS011;12272;52.426;17.100;2024-02-15T12:55:52;14.73;;;11.37;;
24090;SDS011;12272;52.426;17.100;2024-02-15T13:00:59;18.93;;;11.73;;
24090;SDS011;12272;52.426;17.100;2024-02-15T13:06:03;19.13;;;14.67;;
24090;SDS011;12272;52.426;17.100;2024-02-15T13:11:06;10.77;;;8.63;;
24090;SDS011;12272;52.426;17.100;2024-02-15T13:16:11;20.43;;;14.30;;
24090;SDS011;12272;52.426;17.100;2024-02-15T13:21:15;25.40;;;14.40;;
24090;SDS011;12272;52.426;17.100;2024-02-15T13:26:19;25.27;;;19.00;;
24090;SDS011;12272;52.426;17.100;2024-02-15T13:31:22;31.20;;;18.93;;
24090;SDS011;12272;52.426;17.100;2024-02-15T13:36:24;26.43;;;16.67;;
24090;SDS011;12272;52.426;17.100;2024-02-15T13:41:28;29.67;;;18.67;;
24090;SDS011;12272;52.426;17.100;2024-02-15T13:46:30;31.77;;;18.90;;
24090;SDS011;12272;52.426;17.100;2024-02-15T13:51:33;26.50;;;18.60;;
24090;SDS011;12272;52.426;17.100;2024-02-15T13:56:37;30.10;;;20.23;;
24090;SDS011;12272;52.426;17.100;2024-02-15T14:01:39;33.70;;;23.10;;
24090;SDS011;12272;52.426;17.100;2024-02-15T14:06:47;30.73;;;20.03;;
24090;SDS011;12272;52.426;17.100;2024-02-15T14:11:50;35.07;;;22.50;;
24090;SDS011;12272;52.426;17.100;2024-02-15T14:16:53;34.77;;;21.17;;
24090;SDS011;12272;52.426;17.100;2024-02-15T14:21:55;27.07;;;18.53;;
24090;SDS011;12272;52.426;17.100;2024-02-15T14:26:58;34.90;;;20.77;;
24090;SDS011;12272;52.426;17.100;2024-02-15T14:32:01;33.00;;;21.57;;
24090;SDS011;12272;52.426;17.100;2024-02-15T14:37:23;32.50;;;21.73;;
24090;SDS011;12272;52.426;17.100;2024-02-15T14:42:26;37.03;;;24.10;;
24090;SDS011;12272;52.426;17.100;2024-02-15T14:47:29;40.47;;;25.60;;
24090;SDS011;12272;52.426;17.100;2024-02-15T14:52:32;30.27;;;21.57;;
24090;SDS011;12272;52.426;17.100;2024-02-15T14:57:34;39.83;;;24.73;;
24090;SDS011;12272;52.426;17.100;2024-02-15T15:02:40;33.93;;;24.30;;
24090;SDS011;12272;52.426;17.100;2024-02-15T15:07:45;34.93;;;23.17;;
24090;SDS011;12272;52.426;17.100;2024-02-15T15:13:06;40.17;;;26.17;;
24090;SDS011;12272;52.426;17.100;2024-02-15T15:18:11;46.17;;;24.80;;
24090;SDS011;12272;52.426;17.100;2024-02-15T15:23:14;40.10;;;22.90;;
24090;SDS011;12272;52.426;17.100;2024-02-15T15:28:17;46.57;;;30.10;;
24090;SDS011;12272;52.426;17.100;2024-02-15T15:33:20;56.70;;;33.67;;
24090;SDS011;12272;52.426;17.100;2024-02-15T15:38:24;54.63;;;32.73;;
24090;SDS011;12272;52.426;17.100;2024-02-15T15:43:29;44.37;;;30.87;;
24090;SDS011;12272;52.426;17.100;2024-02-15T15:48:31;46.57;;;29.13;;
24090;SDS011;12272;52.426;17.100;2024-02-15T15:53:39;47.57;;;29.93;;
24090;SDS011;12272;52.426;17.100;2024-02-15T15:58:42;43.53;;;27.47;;
24090;SDS011;12272;52.426;17.100;2024-02-15T16:03:48;56.20;;;31.33;;
24090;SDS011;12272;52.426;17.100;2024-02-15T16:08:51;45.77;;;29.07;;
24090;SDS011;12272;52.426;17.100;2024-02-15T16:13:54;45.77;;;28.73;;
24090;SDS011;12272;52.426;17.100;2024-02-15T16:18:57;45.03;;;27.93;;
24090;SDS011;12272;52.426;17.100;2024-02-15T16:24:00;43.57;;;27.47;;
24090;SDS011;12272;52.426;17.100;2024-02-15T16:29:02;39.37;;;25.10;;
24090;SDS011;12272;52.426;17.100;2024-02-15T16:34:06;28.03;;;18.53;;
24090;SDS011;12272;52.426;17.100;2024-02-15T16:39:09;21.43;;;15.03;;
24090;SDS011;12272;52.426;17.100;2024-02-15T16:44:13;28.80;;;20.30;;
24090;SDS011;12272;52.426;17.100;2024-02-15T16:49:17;30.87;;;19.83;;
24090;SDS011;12272;52.426;17.100;2024-02-15T16:54:20;32.40;;;22.07;;
24090;SDS011;12272;52.426;17.100;2024-02-15T16:59:23;33.20;;;23.07;;
24090;SDS011;12272;52.426;17.100;2024-02-15T17:04:26;41.23;;;27.63;;
24090;SDS011;12272;52.426;17.100;2024-02-15T17:09:29;39.83;;;25.23;;
24090;SDS011;12272;52.426;17.100;2024-02-15T17:14:31;38.10;;;25.53;;
24090;SDS011;12272;52.426;17.100;2024-02-15T17:19:34;43.23;;;27.30;;
24090;SDS011;12272;52.426;17.100;2024-02-15T17:24:37;39.53;;;26.07;;
24090;SDS011;12272;52.426;17.100;2024-02-15T17:29:42;36.43;;;26.30;;
24090;SDS011;12272;52.426;17.100;2024-02-15T17:34:45;35.47;;;25.00;;
24090;SDS011;12272;52.426;17.100;2024-02-15T17:39:48;45.40;;;29.43;;
24090;SDS011;12272;52.426;17.100;2024-02-15T17:44:50;42.17;;;27.43;;
24090;SDS011;12272;52.426;17.100;2024-02-15T17:49:53;42.50;;;27.20;;
24090;SDS011;12272;52.426;17.100;2024-02-15T17:54:58;47.27;;;28.53;;
24090;SDS011;12272;52.426;17.100;2024-02-15T18:00:01;44.03;;;27.77;;
24090;SDS011;12272;52.426;17.100;2024-02-15T18:05:12;47.10;;;29.53;;
24090;SDS011;12272;52.426;17.100;2024-02-15T18:10:15;55.27;;;31.87;;
24090;SDS011;12272;52.426;17.100;2024-02-15T18:15:22;47.10;;;29.83;;
24090;SDS011;12272;52.426;17.100;2024-02-15T18:20:27;48.10;;;29.60;;
24090;SDS011;12272;52.426;17.100;2024-02-15T18:25:30;60.97;;;34.57;;
24090;SDS011;12272;52.426;17.100;2024-02-15T18:30:32;68.23;;;37.57;;
24090;SDS011;12272;52.426;17.100;2024-02-15T18:35:44;63.97;;;36.97;;
24090;SDS011;12272;52.426;17.100;2024-02-15T18:40:48;68.00;;;38.13;;
24090;SDS011;12272;52.426;17.100;2024-02-15T18:45:50;61.83;;;38.27;;
24090;SDS011;12272;52.426;17.100;2024-02-15T18:50:53;64.50;;;37.00;;
24090;SDS011;12272;52.426;17.100;2024-02-15T18:55:55;51.30;;;33.13;;
24090;SDS011;12272;52.426;17.100;2024-02-15T19:00:58;47.27;;;31.87;;
24090;SDS011;12272;52.426;17.100;2024-02-15T19:06:00;52.60;;;32.37;;
24090;SDS011;12272;52.426;17.100;2024-02-15T19:11:03;54.27;;;34.40;;
24090;SDS011;12272;52.426;17.100;2024-02-15T19:16:06;57.93;;;37.77;;
24090;SDS011;12272;52.426;17.100;2024-02-15T19:21:09;55.57;;;35.60;;
24090;SDS011;12272;52.426;17.100;2024-02-15T19:26:12;48.57;;;32.50;;
24090;SDS011;12272;52.426;17.100;2024-02-15T19:31:15;55.17;;;33.90;;
24090;SDS011;12272;52.426;17.100;2024-02-15T19:36:18;45.37;;;32.60;;
24090;SDS011;12272;52.426;17.100;2024-02-15T19:41:27;50.20;;;33.33;;
24090;SDS011;12272;52.426;17.100;2024-02-15T19:46:29;47.60;;;33.47;;
24090;SDS011;12272;52.426;17.100;2024-02-15T19:51:34;47.10;;;32.17;;
24090;SDS011;12272;52.426;17.100;2024-02-15T19:56:37;51.00;;;33.10;;
24090;SDS011;12272;52.426;17.100;2024-02-15T20:01:39;53.77;;;34.20;;
24090;SDS011;12272;52.426;17.100;2024-02-15T20:06:45;54.27;;;35.20;;
24090;SDS011;12272;52.426;17.100;2024-02-15T20:11:49;57.77;;;34.40;;
24090;SDS011;12272;52.426;17.100;2024-02-15T20:16:52;50.77;;;33.37;;
24090;SDS011;12272;52.426;17.100;2024-02-15T20:21:56;47.07;;;32.63;;
24090;SDS011;12272;52.426;17.100;2024-02-15T20:26:59;44.63;;;30.40;;
24090;SDS011;12272;52.426;17.100;2024-02-15T20:32:02;47.03;;;31.13;;
24090;SDS011;12272;52.426;17.100;2024-02-15T20:37:06;49.60;;;31.57;;
24090;SDS011;12272;52.426;17.100;2024-02-15T20:42:09;44.43;;;30.90;;
24090;SDS011;12272;52.426;17.100;2024-02-15T20:47:11;48.83;;;31.90;;
24090;SDS011;12272;52.426;17.100;2024-02-15T20:52:14;43.37;;;29.37;;
24090;SDS011;12272;52.426;17.100;2024-02-15T20:57:19;46.97;;;30.77;;
24090;SDS011;12272;52.426;17.100;2024-02-15T21:02:22;44.00;;;29.83;;
24090;SDS011;12272;52.426;17.100;2024-02-15T21:07:25;47.83;;;33.10;;
24090;SDS011;12272;52.426;17.100;2024-02-15T21:12:28;48.50;;;32.30;;
24090;SDS011;12272;52.426;17.100;2024-02-15T21:17:31;50.17;;;32.20;;
24090;SDS011;12272;52.426;17.100;2024-02-15T21:22:33;47.97;;;32.80;;
24090;SDS011;12272;52.426;17.100;2024-02-15T21:27:36;44.40;;;30.93;;
24090;SDS011;12272;52.426;17.100;2024-02-15T21:32:39;50.27;;;30.93;;
24090;SDS011;12272;52.426;17.100;2024-02-15T21:37:42;44.50;;;30.50;;
24090;SDS011;12272;52.426;17.100;2024-02-15T21:42:45;49.10;;;31.13;;
24090;SDS011;12272;52.426;17.100;2024-02-15T21:47:47;48.60;;;31.30;;
24090;SDS011;12272;52.426;17.100;2024-02-15T21:52:50;46.43;;;30.87;;
24090;SDS011;12272;52.426;17.100;2024-02-15T21:57:52;43.63;;;29.53;;
24090;SDS011;12272;52.426;17.100;2024-02-15T22:02:55;46.50;;;32.10;;
24090;SDS011;12272;52.426;17.100;2024-02-15T22:07:57;50.13;;;32.37;;
24090;SDS011;12272;52.426;17.100;2024-02-15T22:13:01;50.03;;;31.10;;
24090;SDS011;12272;52.426;17.100;2024-02-15T22:18:07;52.93;;;33.20;;
24090;SDS011;12272;52.426;17.100;2024-02-15T22:23:10;51.43;;;32.47;;
24090;SDS011;12272;52.426;17.100;2024-02-15T22:28:12;51.27;;;33.20;;
24090;SDS011;12272;52.426;17.100;2024-02-15T22:33:18;71.70;;;38.93;;
24090;SDS011;12272;52.426;17.100;2024-02-15T22:38:23;82.33;;;41.27;;
24090;SDS011;12272;52.426;17.100;2024-02-15T22:43:27;78.80;;;41.67;;
24090;SDS011;12272;52.426;17.100;2024-02-15T22:48:29;50.00;;;32.03;;
24090;SDS011;12272;52.426;17.100;2024-02-15T22:53:32;53.57;;;33.67;;
24090;SDS011;12272;52.426;17.100;2024-02-15T22:58:42;40.70;;;28.57;;
24090;SDS011;12272;52.426;17.100;2024-02-15T23:03:45;46.07;;;27.47;;
24090;SDS011;12272;52.426;17.100;2024-02-15T23:08:47;40.40;;;27.40;;
24090;SDS011;12272;52.426;17.100;2024-02-15T23:13:50;39.07;;;24.40;;
24090;SDS011;12272;52.426;17.100;2024-02-15T23:18:52;33.20;;;23.33;;
24090;SDS011;12272;52.426;17.100;2024-02-15T23:23:56;37.93;;;22.63;;
24090;SDS011;12272;52.426;17.100;2024-02-15T23:28:59;39.77;;;23.40;;
24090;SDS011;12272;52.426;17.100;2024-02-15T23:34:02;39.37;;;23.20;;
24090;SDS011;12272;52.426;17.100;2024-02-15T23:39:04;35.03;;;23.13;;
24090;SDS011;12272;52.426;17.100;2024-02-15T23:44:31;48.90;;;23.63;;
24090;SDS011;12272;52.426;17.100;2024-02-15T23:49:35;31.67;;;22.40;;
24090;SDS011;12272;52.426;17.100;2024-02-15T23:54:39;34.40;;;23.43;;
24090;SDS011;12272;52.426;17.100;2024-02-15T23:59:41;31.50;;;22.30;;
